createdAt,value
2019-03-27T00:00:31.615Z,12.60
2019-03-27T00:01:31.606Z,13.50
2019-03-27T00:02:31.603Z,12.70
2019-03-27T00:03:31.604Z,9.60
2019-03-27T00:04:31.618Z,8.90
2019-03-27T00:05:31.586Z,10.50
2019-03-27T00:06:31.593Z,11.50
2019-03-27T00:07:31.588Z,10.60
2019-03-27T00:08:31.581Z,6.90
2019-03-27T00:09:31.559Z,9.20
2019-03-27T00:10:31.565Z,10.40
2019-03-27T00:11:31.582Z,8.20
2019-03-27T00:12:31.554Z,6.50
2019-03-27T00:13:31.541Z,10.40
2019-03-27T00:14:31.524Z,9.00
2019-03-27T00:15:31.527Z,10.50
2019-03-27T00:16:31.531Z,11.40
2019-03-27T00:17:31.723Z,15.40
2019-03-27T00:18:31.711Z,13.50
2019-03-27T00:19:31.711Z,13.70
2019-03-27T00:20:31.498Z,14.60
2019-03-27T00:21:31.511Z,14.50
2019-03-27T00:22:31.484Z,12.00
2019-03-27T00:23:31.488Z,11.00
2019-03-27T00:24:31.462Z,15.30
2019-03-27T00:25:31.674Z,18.10
2019-03-27T00:26:31.464Z,17.40
2019-03-27T00:27:31.460Z,12.30
2019-03-27T00:28:31.440Z,13.50
2019-03-27T00:29:31.442Z,12.50
2019-03-27T00:30:31.422Z,13.10
2019-03-27T00:31:31.415Z,13.00
2019-03-27T00:32:31.417Z,13.20
2019-03-27T00:33:31.609Z,13.40
2019-03-27T00:34:31.407Z,14.40
2019-03-27T00:35:31.392Z,14.10
2019-03-27T00:36:31.384Z,14.10
2019-03-27T00:37:31.395Z,13.90
2019-03-27T00:38:31.581Z,14.20
2019-03-27T00:39:31.583Z,13.80
2019-03-27T00:40:31.376Z,11.60
2019-03-27T00:41:31.356Z,14.40
2019-03-27T00:42:31.352Z,12.70
2019-03-27T00:43:31.552Z,18.20
2019-03-27T00:44:31.341Z,15.00
2019-03-27T00:45:31.326Z,12.70
2019-03-27T00:46:31.323Z,14.70
2019-03-27T00:47:31.348Z,18.10
2019-03-27T00:48:31.323Z,12.20
2019-03-27T00:49:31.507Z,14.70
2019-03-27T00:50:31.330Z,14.50
2019-03-27T00:51:31.290Z,12.70
2019-03-27T00:52:31.288Z,14.70
2019-03-27T00:53:31.293Z,12.70
2019-03-27T00:54:31.271Z,15.30
2019-03-27T00:55:31.285Z,12.30
2019-03-27T00:56:31.269Z,13.50
2019-03-27T00:57:31.251Z,17.60
2019-03-27T00:58:31.274Z,13.50
2019-03-27T00:59:31.446Z,14.00
2019-03-27T01:00:31.449Z,15.50
2019-03-27T01:01:31.440Z,16.30
2019-03-27T01:02:31.227Z,16.30
2019-03-27T01:03:31.212Z,15.00
2019-03-27T01:04:31.225Z,15.30
2019-03-27T01:05:31.230Z,17.40
2019-03-27T01:06:31.208Z,15.70
2019-03-27T01:07:31.186Z,15.50
2019-03-27T01:08:31.201Z,12.50
2019-03-27T01:09:31.179Z,13.90
2019-03-27T01:10:31.271Z,13.60
2019-03-27T01:11:31.162Z,15.30
2019-03-27T01:12:31.161Z,16.70
2019-03-27T01:13:31.153Z,14.90
2019-03-27T01:14:31.159Z,14.80
2019-03-27T01:15:39.848Z,16.30
2019-03-27T01:16:31.142Z,13.80
2019-03-27T01:17:31.128Z,16.40
2019-03-27T01:18:31.121Z,15.60
2019-03-27T01:19:31.116Z,12.10
2019-03-27T01:20:31.127Z,15.20
2019-03-27T01:21:31.098Z,16.80
2019-03-27T01:22:31.098Z,19.70
2019-03-27T01:23:31.097Z,16.90
2019-03-27T01:24:31.098Z,17.10
2019-03-27T01:25:31.106Z,14.70
2019-03-27T01:26:31.072Z,14.00
2019-03-27T01:27:31.065Z,16.50
2019-03-27T01:28:31.086Z,14.20
2019-03-27T01:29:31.051Z,15.20
2019-03-27T01:30:31.075Z,19.40
2019-03-27T01:31:31.246Z,18.00
2019-03-27T01:32:31.029Z,13.70
2019-03-27T01:33:31.023Z,14.60
2019-03-27T01:34:31.024Z,12.20
2019-03-27T01:35:31.012Z,13.90
2019-03-27T01:36:31.210Z,15.10
2019-03-27T01:37:31.011Z,13.30
2019-03-27T01:38:31.202Z,14.60
2019-03-27T01:39:30.991Z,19.80
2019-03-27T01:40:31.185Z,17.20
2019-03-27T01:41:30.973Z,15.20
2019-03-27T01:42:31.167Z,18.40
2019-03-27T01:43:31.175Z,15.60
2019-03-27T01:44:31.167Z,15.80
2019-03-27T01:45:30.956Z,14.40
2019-03-27T01:46:31.172Z,15.40
2019-03-27T01:47:30.933Z,15.30
2019-03-27T01:48:30.925Z,24.40
2019-03-27T01:49:30.918Z,25.40
2019-03-27T01:50:30.916Z,26.20
2019-03-27T01:51:30.920Z,21.90
2019-03-27T01:52:31.118Z,25.80
2019-03-27T01:53:30.921Z,27.20
2019-03-27T01:54:30.889Z,25.10
2019-03-27T01:55:30.898Z,27.00
2019-03-27T01:56:31.085Z,29.60
2019-03-27T01:57:31.069Z,27.90
2019-03-27T01:58:31.065Z,28.40
2019-03-27T01:59:30.857Z,26.60
2019-03-27T02:00:30.846Z,25.50
2019-03-27T02:01:31.057Z,27.90
2019-03-27T02:02:31.047Z,28.20
2019-03-27T02:03:30.826Z,27.20
2019-03-27T02:04:30.817Z,19.90
2019-03-27T02:05:30.811Z,23.40
2019-03-27T02:06:30.823Z,26.10
2019-03-27T02:07:30.830Z,23.30
2019-03-27T02:08:30.802Z,25.00
2019-03-27T02:09:30.786Z,22.20
2019-03-27T02:10:30.807Z,27.70
2019-03-27T02:11:31.001Z,24.10
2019-03-27T02:12:30.773Z,26.10
2019-03-27T02:13:30.788Z,24.40
2019-03-27T02:14:30.772Z,27.80
2019-03-27T02:15:30.972Z,23.10
2019-03-27T02:16:30.745Z,20.20
2019-03-27T02:17:30.743Z,27.30
2019-03-27T02:18:30.928Z,22.60
2019-03-27T02:19:30.748Z,25.80
2019-03-27T02:20:30.713Z,22.10
2019-03-27T02:21:30.905Z,25.20
2019-03-27T02:22:30.703Z,21.90
2019-03-27T02:23:30.691Z,23.80
2019-03-27T02:24:30.761Z,26.50
2019-03-27T02:25:30.685Z,28.00
2019-03-27T02:26:30.673Z,23.40
2019-03-27T02:27:30.678Z,30.00
2019-03-27T02:28:30.677Z,27.80
2019-03-27T02:29:30.651Z,25.70
2019-03-27T02:30:30.646Z,24.30
2019-03-27T02:31:30.637Z,29.00
2019-03-27T02:32:30.642Z,27.60
2019-03-27T02:33:30.640Z,24.50
2019-03-27T02:34:30.835Z,25.50
2019-03-27T02:35:30.630Z,23.20
2019-03-27T02:36:30.610Z,25.20
2019-03-27T02:37:30.805Z,23.20
2019-03-27T02:38:30.601Z,26.60
2019-03-27T02:39:30.789Z,25.40
2019-03-27T02:40:30.589Z,24.70
2019-03-27T02:41:30.604Z,27.50
2019-03-27T02:42:30.573Z,27.40
2019-03-27T02:43:30.554Z,26.30
2019-03-27T02:44:30.550Z,27.70
2019-03-27T02:45:30.552Z,28.20
2019-03-27T02:46:30.539Z,26.70
2019-03-27T02:47:30.532Z,24.90
2019-03-27T02:48:30.552Z,30.40
2019-03-27T02:49:30.518Z,28.40
2019-03-27T02:50:30.518Z,29.70
2019-03-27T02:51:30.533Z,27.80
2019-03-27T02:52:30.521Z,24.80
2019-03-27T02:53:30.504Z,29.60
2019-03-27T02:54:30.495Z,27.00
2019-03-27T02:55:30.474Z,25.80
2019-03-27T02:56:30.677Z,24.70
2019-03-27T02:57:30.462Z,25.00
2019-03-27T02:58:30.661Z,13.30
2019-03-27T02:59:30.454Z,15.90
2019-03-27T03:00:30.447Z,11.00
2019-03-27T03:01:30.671Z,12.40
2019-03-27T03:02:30.641Z,12.30
2019-03-27T03:03:30.467Z,13.00
2019-03-27T03:04:30.647Z,14.80
2019-03-27T03:05:30.422Z,17.20
2019-03-27T03:06:30.421Z,15.00
2019-03-27T03:07:30.396Z,15.20
2019-03-27T03:08:30.388Z,13.10
2019-03-27T03:09:30.587Z,13.10
2019-03-27T03:10:30.380Z,14.90
2019-03-27T03:11:30.368Z,13.50
2019-03-27T03:12:30.390Z,15.70
2019-03-27T03:13:30.367Z,13.10
2019-03-27T03:14:30.563Z,13.70
2019-03-27T03:15:30.552Z,21.70
2019-03-27T03:16:41.972Z,19.90
2019-03-27T03:17:30.335Z,17.80
2019-03-27T03:18:30.334Z,22.00
2019-03-27T03:19:30.324Z,19.40
2019-03-27T03:20:30.323Z,17.80
2019-03-27T03:21:30.312Z,16.20
2019-03-27T03:22:30.294Z,17.40
2019-03-27T03:23:30.509Z,18.70
2019-03-27T03:24:30.286Z,21.10
2019-03-27T03:25:30.285Z,21.60
2019-03-27T03:26:30.464Z,18.90
2019-03-27T03:27:30.266Z,15.10
2019-03-27T03:28:30.264Z,16.10
2019-03-27T03:29:30.245Z,22.70
2019-03-27T03:30:30.253Z,22.90
2019-03-27T03:31:30.267Z,21.90
2019-03-27T03:32:30.222Z,16.80
2019-03-27T03:33:30.221Z,19.50
2019-03-27T03:34:30.217Z,20.60
2019-03-27T03:35:30.218Z,20.80
2019-03-27T03:36:30.198Z,19.90
2019-03-27T03:37:30.186Z,17.90
2019-03-27T03:38:30.184Z,16.60
2019-03-27T03:39:30.171Z,19.90
2019-03-27T03:40:30.171Z,14.30
2019-03-27T03:41:30.157Z,18.30
2019-03-27T03:42:30.158Z,18.90
2019-03-27T03:43:30.378Z,16.90
2019-03-27T03:44:30.155Z,16.60
2019-03-27T03:45:30.137Z,17.60
2019-03-27T03:46:30.130Z,19.90
2019-03-27T03:47:30.135Z,21.70
2019-03-27T03:48:30.312Z,18.50
2019-03-27T03:49:30.323Z,22.80
2019-03-27T03:50:30.098Z,20.20
2019-03-27T03:51:30.102Z,20.90
2019-03-27T03:52:30.080Z,19.80
2019-03-27T03:53:30.075Z,20.60
2019-03-27T03:54:30.072Z,21.90
2019-03-27T03:55:30.063Z,21.80
2019-03-27T03:56:30.252Z,19.70
2019-03-27T03:57:30.068Z,18.40
2019-03-27T03:58:30.053Z,19.20
2019-03-27T03:59:30.253Z,18.10
2019-03-27T04:00:30.190Z,16.20
2019-03-27T04:01:30.013Z,16.90
2019-03-27T04:02:30.003Z,18.30
2019-03-27T04:03:30.000Z,24.80
2019-03-27T04:04:30.000Z,24.60
2019-03-27T04:05:30.028Z,19.00
2019-03-27T04:06:29.980Z,20.90
2019-03-27T04:07:29.983Z,22.50
2019-03-27T04:08:29.971Z,21.20
2019-03-27T04:09:29.964Z,24.20
2019-03-27T04:10:29.967Z,20.50
2019-03-27T04:11:29.949Z,21.80
2019-03-27T04:12:29.936Z,21.10
2019-03-27T04:13:29.933Z,24.30
2019-03-27T04:14:30.122Z,23.40
2019-03-27T04:15:29.915Z,22.70
2019-03-27T04:16:29.911Z,25.20
2019-03-27T04:17:29.895Z,20.90
2019-03-27T04:18:29.887Z,25.10
2019-03-27T04:19:29.883Z,27.40
2019-03-27T04:20:29.877Z,22.90
2019-03-27T04:21:29.869Z,22.90
2019-03-27T04:22:30.074Z,23.80
2019-03-27T04:23:30.072Z,26.90
2019-03-27T04:24:29.844Z,23.40
2019-03-27T04:25:30.063Z,27.70
2019-03-27T04:26:33.390Z,24.80
2019-03-27T04:27:29.825Z,24.00
2019-03-27T04:28:29.820Z,26.10
2019-03-27T04:29:30.010Z,19.50
2019-03-27T04:30:29.800Z,19.00
2019-03-27T04:31:29.792Z,23.00
2019-03-27T04:32:29.787Z,23.20
2019-03-27T04:33:29.779Z,24.70
2019-03-27T04:34:29.976Z,28.20
2019-03-27T04:35:29.770Z,23.70
2019-03-27T04:36:29.959Z,33.00
2019-03-27T04:37:29.764Z,31.40
2019-03-27T04:38:29.742Z,36.60
2019-03-27T04:39:29.727Z,34.30
2019-03-27T04:40:29.730Z,31.60
2019-03-27T04:41:29.725Z,32.40
2019-03-27T04:42:29.913Z,26.90
2019-03-27T04:43:29.717Z,30.30
2019-03-27T04:44:29.700Z,29.00
2019-03-27T04:45:29.694Z,28.20
2019-03-27T04:46:29.676Z,30.50
2019-03-27T04:47:32.339Z,26.80
2019-03-27T04:48:29.685Z,28.00
2019-03-27T04:49:29.672Z,29.50
2019-03-27T04:50:29.652Z,32.30
2019-03-27T04:51:29.857Z,29.70
2019-03-27T04:52:29.642Z,30.00
2019-03-27T04:53:29.640Z,27.60
2019-03-27T04:54:29.824Z,30.00
2019-03-27T04:55:29.613Z,29.40
2019-03-27T04:56:29.618Z,32.60
2019-03-27T04:57:29.804Z,29.50
2019-03-27T04:58:29.800Z,30.20
2019-03-27T04:59:29.583Z,31.60
2019-03-27T05:00:29.783Z,27.80
2019-03-27T05:01:29.582Z,29.70
2019-03-27T05:02:29.573Z,28.70
2019-03-27T05:03:29.551Z,25.80
2019-03-27T05:04:29.563Z,24.60
2019-03-27T05:05:29.557Z,26.90
2019-03-27T05:06:29.535Z,23.50
2019-03-27T05:07:29.528Z,24.80
2019-03-27T05:08:29.739Z,26.40
2019-03-27T05:09:29.517Z,28.10
2019-03-27T05:10:29.511Z,27.40
2019-03-27T05:11:29.508Z,28.40
2019-03-27T05:12:29.501Z,24.40
2019-03-27T05:13:29.477Z,20.80
2019-03-27T05:14:29.474Z,21.80
2019-03-27T05:15:29.467Z,19.60
2019-03-27T05:16:29.474Z,22.30
2019-03-27T05:17:29.485Z,25.40
2019-03-27T05:18:29.445Z,20.00
2019-03-27T05:19:29.442Z,22.70
2019-03-27T05:20:29.436Z,23.30
2019-03-27T05:21:29.429Z,23.60
2019-03-27T05:22:29.420Z,20.80
2019-03-27T05:23:29.440Z,21.70
2019-03-27T05:24:29.415Z,21.40
2019-03-27T05:25:29.409Z,27.10
2019-03-27T05:26:29.406Z,22.30
2019-03-27T05:27:29.402Z,22.80
2019-03-27T05:28:29.379Z,20.50
2019-03-27T05:29:29.364Z,23.50
2019-03-27T05:30:29.375Z,23.50
2019-03-27T05:31:29.361Z,21.30
2019-03-27T05:32:29.553Z,22.70
2019-03-27T05:33:32.582Z,19.80
2019-03-27T05:34:29.341Z,16.80
2019-03-27T05:35:29.335Z,16.90
2019-03-27T05:36:29.327Z,17.70
2019-03-27T05:37:29.312Z,17.20
2019-03-27T05:38:29.324Z,16.10
2019-03-27T05:39:29.292Z,13.60
2019-03-27T05:40:29.326Z,19.40
2019-03-27T05:41:29.298Z,24.10
2019-03-27T05:42:29.278Z,28.10
2019-03-27T05:43:29.266Z,27.20
2019-03-27T05:44:29.276Z,24.70
2019-03-27T05:45:29.257Z,24.00
2019-03-27T05:46:29.252Z,20.70
2019-03-27T05:47:29.237Z,17.20
2019-03-27T05:48:29.244Z,18.80
2019-03-27T05:49:29.245Z,21.30
2019-03-27T05:50:29.425Z,18.80
2019-03-27T05:51:29.224Z,17.30
2019-03-27T05:52:29.203Z,15.40
2019-03-27T05:53:29.256Z,15.70
2019-03-27T05:54:29.191Z,17.40
2019-03-27T05:55:29.390Z,22.40
2019-03-27T05:56:29.180Z,24.20
2019-03-27T05:57:29.185Z,24.50
2019-03-27T05:58:29.362Z,22.90
2019-03-27T05:59:29.363Z,26.20
2019-03-27T06:00:29.157Z,24.10
2019-03-27T06:01:29.357Z,23.30
2019-03-27T06:02:29.157Z,23.60
2019-03-27T06:03:29.125Z,24.60
2019-03-27T06:04:29.120Z,25.00
2019-03-27T06:05:29.145Z,30.60
2019-03-27T06:06:29.127Z,29.40
2019-03-27T06:07:29.117Z,26.50
2019-03-27T06:08:29.101Z,28.30
2019-03-27T06:09:29.100Z,29.10
2019-03-27T06:10:29.133Z,29.20
2019-03-27T06:11:29.107Z,28.70
2019-03-27T06:12:29.099Z,26.90
2019-03-27T06:13:29.082Z,29.10
2019-03-27T06:14:29.070Z,29.00
2019-03-27T06:15:29.273Z,28.80
2019-03-27T06:16:29.073Z,28.60
2019-03-27T06:17:29.246Z,27.00
2019-03-27T06:18:29.288Z,27.10
2019-03-27T06:19:29.021Z,27.30
2019-03-27T06:20:29.005Z,31.80
2019-03-27T06:21:28.998Z,30.40
2019-03-27T06:22:29.014Z,32.20
2019-03-27T06:23:29.008Z,33.30
2019-03-27T06:24:28.988Z,32.00
2019-03-27T06:25:28.980Z,32.80
2019-03-27T06:26:29.171Z,36.80
2019-03-27T06:27:28.957Z,37.70
2019-03-27T06:28:29.156Z,36.60
2019-03-27T06:29:28.945Z,39.10
2019-03-27T06:30:28.936Z,43.40
2019-03-27T06:31:28.934Z,41.00
2019-03-27T06:32:28.924Z,39.20
2019-03-27T06:33:29.123Z,45.20
2019-03-27T06:34:28.911Z,41.40
2019-03-27T06:35:28.908Z,39.80
2019-03-27T06:36:28.894Z,39.90
2019-03-27T06:37:29.120Z,41.70
2019-03-27T06:38:28.894Z,36.40
2019-03-27T06:39:28.873Z,41.90
2019-03-27T06:40:29.077Z,35.40
2019-03-27T06:41:28.865Z,36.40
2019-03-27T06:42:28.851Z,37.90
2019-03-27T06:43:28.847Z,42.60
2019-03-27T06:44:28.839Z,39.70
2019-03-27T06:45:28.841Z,37.90
2019-03-27T06:46:28.840Z,41.20
2019-03-27T06:47:28.818Z,41.30
2019-03-27T06:48:28.815Z,42.10
2019-03-27T06:49:28.809Z,38.80
2019-03-27T06:50:28.797Z,44.40
2019-03-27T06:51:39.402Z,36.00
2019-03-27T06:52:28.783Z,40.20
2019-03-27T06:53:28.778Z,41.30
2019-03-27T06:54:28.771Z,41.00
2019-03-27T06:55:28.770Z,42.10
2019-03-27T06:56:28.757Z,38.00
2019-03-27T06:57:28.750Z,45.00
2019-03-27T06:58:28.949Z,40.60
2019-03-27T06:59:28.737Z,40.80
2019-03-27T07:00:28.727Z,42.00
2019-03-27T07:01:28.738Z,43.10
2019-03-27T07:02:29.078Z,44.10
2019-03-27T07:03:28.708Z,42.80
2019-03-27T07:04:28.720Z,47.10
2019-03-27T07:05:28.704Z,44.40
2019-03-27T07:06:28.693Z,44.70
2019-03-27T07:07:28.691Z,41.70
2019-03-27T07:08:28.695Z,40.10
2019-03-27T07:09:28.880Z,42.40
2019-03-27T07:10:28.663Z,44.40
2019-03-27T07:11:28.662Z,40.10
2019-03-27T07:12:28.662Z,46.20
2019-03-27T07:13:28.645Z,36.40
2019-03-27T07:14:28.641Z,38.30
2019-03-27T07:15:28.829Z,43.00
2019-03-27T07:16:28.824Z,37.10
2019-03-27T07:17:28.618Z,38.40
2019-03-27T07:18:39.451Z,45.30
2019-03-27T07:19:28.617Z,51.10
2019-03-27T07:20:28.816Z,43.10
2019-03-27T07:21:28.797Z,51.90
2019-03-27T07:22:28.788Z,47.90
2019-03-27T07:23:28.578Z,50.10
2019-03-27T07:24:28.596Z,44.50
2019-03-27T07:25:28.583Z,44.40
2019-03-27T07:26:28.562Z,46.60
2019-03-27T07:27:28.768Z,51.70
2019-03-27T07:28:28.547Z,47.40
2019-03-27T07:29:28.745Z,46.70
2019-03-27T07:30:28.535Z,49.70
2019-03-27T07:31:28.733Z,51.60
2019-03-27T07:32:28.522Z,50.20
2019-03-27T07:33:28.543Z,47.80
2019-03-27T07:34:28.532Z,49.60
2019-03-27T07:35:28.524Z,52.40
2019-03-27T07:36:28.509Z,47.50
2019-03-27T07:37:28.700Z,47.60
2019-03-27T07:38:28.502Z,44.80
2019-03-27T07:39:28.479Z,48.90
2019-03-27T07:40:28.477Z,50.50
2019-03-27T07:41:28.472Z,47.70
2019-03-27T07:42:29.033Z,47.00
2019-03-27T07:43:28.469Z,47.20
2019-03-27T07:44:28.452Z,45.00
2019-03-27T07:45:28.445Z,50.20
2019-03-27T07:46:28.443Z,50.20
2019-03-27T07:47:28.440Z,48.40
2019-03-27T07:48:28.428Z,45.00
2019-03-27T07:49:28.428Z,45.10
2019-03-27T07:50:28.627Z,45.40
2019-03-27T07:51:28.440Z,43.50
2019-03-27T07:52:28.404Z,42.40
2019-03-27T07:53:28.611Z,47.60
2019-03-27T07:54:28.609Z,44.30
2019-03-27T07:55:28.406Z,48.10
2019-03-27T07:56:28.395Z,46.80
2019-03-27T07:57:28.579Z,44.30
2019-03-27T07:58:28.370Z,50.00
2019-03-27T07:59:28.590Z,48.10
2019-03-27T08:00:28.363Z,49.70
2019-03-27T08:01:28.358Z,48.60
2019-03-27T08:02:28.367Z,42.20
2019-03-27T08:03:28.374Z,48.60
2019-03-27T08:04:28.542Z,47.80
2019-03-27T08:05:28.334Z,47.80
2019-03-27T08:06:28.336Z,47.90
2019-03-27T08:07:28.341Z,49.80
2019-03-27T08:08:28.374Z,51.20
2019-03-27T08:09:28.331Z,52.20
2019-03-27T08:10:28.328Z,59.30
2019-03-27T08:11:28.342Z,58.00
2019-03-27T08:12:28.340Z,57.40
2019-03-27T08:13:28.316Z,58.70
2019-03-27T08:14:28.297Z,62.90
2019-03-27T08:15:28.301Z,68.70
2019-03-27T08:16:28.286Z,63.10
2019-03-27T08:17:28.290Z,65.20
2019-03-27T08:18:28.287Z,65.70
2019-03-27T08:19:28.281Z,68.20
2019-03-27T08:20:28.260Z,70.00
2019-03-27T08:21:30.992Z,66.50
2019-03-27T08:22:28.454Z,67.40
2019-03-27T08:23:28.255Z,70.70
2019-03-27T08:24:28.255Z,71.20
2019-03-27T08:25:28.239Z,71.60
2019-03-27T08:26:28.231Z,71.40
2019-03-27T08:27:28.430Z,68.90
2019-03-27T08:28:28.251Z,72.60
2019-03-27T08:29:28.220Z,69.50
2019-03-27T08:30:28.218Z,66.40
2019-03-27T08:31:28.229Z,58.20
2019-03-27T08:32:28.227Z,60.60
2019-03-27T08:33:28.431Z,64.30
2019-03-27T08:34:28.193Z,69.10
2019-03-27T08:35:28.418Z,63.70
2019-03-27T08:36:28.394Z,59.70
2019-03-27T08:37:28.187Z,64.90
2019-03-27T08:38:28.178Z,64.80
2019-03-27T08:39:28.169Z,67.30
2019-03-27T08:40:28.166Z,70.80
2019-03-27T08:41:28.171Z,67.80
2019-03-27T08:42:28.213Z,67.50
2019-03-27T08:43:28.151Z,66.20
2019-03-27T08:44:28.151Z,65.20
2019-03-27T08:45:28.150Z,60.50
2019-03-27T08:46:28.344Z,58.20
2019-03-27T08:47:28.148Z,58.00
2019-03-27T08:48:28.329Z,63.70
2019-03-27T08:49:28.126Z,62.10
2019-03-27T08:50:28.319Z,63.40
2019-03-27T08:51:28.317Z,65.00
2019-03-27T08:52:28.109Z,65.60
2019-03-27T08:53:28.105Z,58.60
2019-03-27T08:54:28.098Z,56.80
2019-03-27T08:55:28.297Z,47.30
2019-03-27T08:56:28.083Z,52.20
2019-03-27T08:57:28.284Z,52.90
2019-03-27T08:58:28.105Z,51.70
2019-03-27T08:59:28.084Z,54.60
2019-03-27T09:00:28.267Z,53.70
2019-03-27T09:01:28.056Z,57.70
2019-03-27T09:02:28.053Z,55.00
2019-03-27T09:03:28.252Z,50.40
2019-03-27T09:04:28.043Z,56.10
2019-03-27T09:05:28.061Z,58.30
2019-03-27T09:06:33.574Z,55.10
2019-03-27T09:07:28.034Z,57.00
2019-03-27T09:08:28.239Z,55.10
2019-03-27T09:09:28.025Z,54.60
2019-03-27T09:10:28.018Z,52.80
2019-03-27T09:11:28.038Z,51.90
2019-03-27T09:12:28.000Z,60.50
2019-03-27T09:13:28.001Z,54.00
2019-03-27T09:14:28.007Z,53.80
2019-03-27T09:15:27.998Z,55.10
2019-03-27T09:16:27.982Z,54.00
2019-03-27T09:17:27.987Z,56.90
2019-03-27T09:18:27.976Z,55.60
2019-03-27T09:19:35.500Z,56.60
2019-03-27T09:20:27.961Z,59.30
2019-03-27T09:21:28.164Z,51.60
2019-03-27T09:22:27.958Z,56.10
2019-03-27T09:23:27.945Z,53.50
2019-03-27T09:24:28.000Z,53.70
2019-03-27T09:25:27.928Z,57.60
2019-03-27T09:26:27.926Z,53.80
2019-03-27T09:27:28.153Z,55.40
2019-03-27T09:28:27.942Z,52.30
2019-03-27T09:29:27.916Z,58.10
2019-03-27T09:30:27.940Z,60.20
2019-03-27T09:31:27.908Z,56.50
2019-03-27T09:32:28.108Z,55.50
2019-03-27T09:33:28.099Z,55.60
2019-03-27T09:34:27.887Z,59.20
2019-03-27T09:35:27.907Z,59.30
2019-03-27T09:36:27.888Z,57.10
2019-03-27T09:37:27.873Z,57.90
2019-03-27T09:38:27.878Z,55.10
2019-03-27T09:39:27.865Z,54.60
2019-03-27T09:40:27.849Z,49.80
2019-03-27T09:41:27.845Z,53.00
2019-03-27T09:42:27.847Z,49.50
2019-03-27T09:43:27.849Z,51.60
2019-03-27T09:44:27.840Z,47.40
2019-03-27T09:45:27.842Z,53.00
2019-03-27T09:46:27.827Z,50.40
2019-03-27T09:47:27.817Z,57.40
2019-03-27T09:48:27.823Z,47.70
2019-03-27T09:49:28.010Z,45.70
2019-03-27T09:50:27.802Z,47.40
2019-03-27T09:51:27.810Z,50.50
2019-03-27T09:52:27.792Z,49.30
2019-03-27T09:53:27.797Z,47.40
2019-03-27T09:54:27.785Z,49.00
2019-03-27T09:55:27.777Z,48.40
2019-03-27T09:56:27.766Z,45.40
2019-03-27T09:57:27.761Z,50.80
2019-03-27T09:58:27.766Z,46.40
2019-03-27T09:59:27.753Z,45.90
2019-03-27T10:00:27.753Z,49.30
2019-03-27T10:01:27.757Z,44.90
2019-03-27T10:02:27.748Z,46.40
2019-03-27T10:03:27.735Z,44.80
2019-03-27T10:04:27.754Z,42.60
2019-03-27T10:05:27.721Z,46.30
2019-03-27T10:06:27.717Z,43.60
2019-03-27T10:07:27.714Z,43.10
2019-03-27T10:08:27.709Z,46.10
2019-03-27T10:09:27.917Z,47.50
2019-03-27T10:10:27.694Z,45.80
2019-03-27T10:11:27.696Z,48.90
2019-03-27T10:12:27.688Z,44.30
2019-03-27T10:13:27.679Z,45.70
2019-03-27T10:14:27.704Z,46.70
2019-03-27T10:15:27.681Z,43.10
2019-03-27T10:16:27.664Z,42.70
2019-03-27T10:17:27.680Z,43.00
2019-03-27T10:18:27.653Z,43.10
2019-03-27T10:19:27.868Z,40.60
2019-03-27T10:20:27.643Z,37.40
2019-03-27T10:21:27.637Z,41.80
2019-03-27T10:22:27.840Z,39.60
2019-03-27T10:23:27.626Z,42.10
2019-03-27T10:24:27.838Z,40.30
2019-03-27T10:25:27.614Z,32.50
2019-03-27T10:26:27.610Z,33.60
2019-03-27T10:27:27.627Z,38.90
2019-03-27T10:28:27.602Z,37.30
2019-03-27T10:29:27.608Z,35.60
2019-03-27T10:30:27.795Z,31.80
2019-03-27T10:31:27.583Z,34.30
2019-03-27T10:32:27.596Z,34.50
2019-03-27T10:33:27.577Z,29.40
2019-03-27T10:34:27.586Z,29.30
2019-03-27T10:35:27.762Z,26.80
2019-03-27T10:36:27.567Z,26.50
2019-03-27T10:37:27.765Z,30.50
2019-03-27T10:38:27.563Z,31.10
2019-03-27T10:39:27.552Z,31.10
2019-03-27T10:40:27.575Z,28.70
2019-03-27T10:41:27.551Z,31.30
2019-03-27T10:42:27.529Z,26.20
2019-03-27T10:43:27.545Z,22.50
2019-03-27T10:44:27.525Z,27.40
2019-03-27T10:45:27.512Z,25.80
2019-03-27T10:46:27.533Z,25.10
2019-03-27T10:47:27.505Z,22.90
2019-03-27T10:48:27.509Z,21.80
2019-03-27T10:49:27.490Z,26.50
2019-03-27T10:50:27.508Z,22.90
2019-03-27T10:51:27.475Z,18.70
2019-03-27T10:52:27.677Z,21.40
2019-03-27T10:53:27.775Z,23.10
2019-03-27T10:54:27.463Z,22.00
2019-03-27T10:55:27.474Z,25.10
2019-03-27T10:56:27.479Z,22.50
2019-03-27T10:57:27.453Z,23.70
2019-03-27T10:58:27.455Z,24.50
2019-03-27T10:59:27.436Z,21.30
2019-03-27T11:00:27.435Z,19.50
2019-03-27T11:01:27.657Z,21.50
2019-03-27T11:02:27.432Z,21.80
2019-03-27T11:03:27.489Z,20.10
2019-03-27T11:04:27.432Z,21.10
2019-03-27T11:05:27.413Z,21.10
2019-03-27T11:06:27.401Z,21.40
2019-03-27T11:07:27.404Z,18.10
2019-03-27T11:08:27.409Z,18.10
2019-03-27T11:09:27.387Z,21.00
2019-03-27T11:10:27.381Z,16.30
2019-03-27T11:11:27.389Z,15.70
2019-03-27T11:12:27.374Z,14.70
2019-03-27T11:13:27.579Z,14.40
2019-03-27T11:14:37.129Z,14.50
2019-03-27T11:15:27.553Z,16.40
2019-03-27T11:16:27.365Z,13.50
2019-03-27T11:17:27.372Z,14.90
2019-03-27T11:18:27.348Z,12.30
2019-03-27T11:19:27.328Z,10.30
2019-03-27T11:20:31.124Z,9.60
2019-03-27T11:21:27.337Z,11.20
2019-03-27T11:22:27.520Z,13.50
2019-03-27T11:23:27.331Z,11.90
2019-03-27T11:24:27.312Z,11.90
2019-03-27T11:25:27.347Z,14.10
2019-03-27T11:26:27.307Z,11.20
2019-03-27T11:27:27.296Z,10.30
2019-03-27T11:28:27.287Z,12.60
2019-03-27T11:29:27.485Z,10.00
2019-03-27T11:30:27.276Z,13.20
2019-03-27T11:31:27.475Z,15.10
2019-03-27T11:32:27.474Z,14.00
2019-03-27T11:33:28.925Z,14.20
2019-03-27T11:34:27.267Z,13.70
2019-03-27T11:35:27.247Z,13.00
2019-03-27T11:36:27.251Z,11.20
2019-03-27T11:37:27.237Z,13.80
2019-03-27T11:38:27.237Z,10.40
2019-03-27T11:39:27.231Z,12.00
2019-03-27T11:40:27.224Z,8.80
2019-03-27T11:41:27.459Z,10.10
2019-03-27T11:42:27.214Z,12.40
2019-03-27T11:43:27.209Z,10.40
2019-03-27T11:44:27.204Z,10.10
2019-03-27T11:45:27.217Z,10.70
2019-03-27T11:46:27.208Z,7.30
2019-03-27T11:47:27.413Z,10.20
2019-03-27T11:48:27.182Z,10.50
2019-03-27T11:49:27.185Z,11.00
2019-03-27T11:50:27.178Z,10.40
2019-03-27T11:51:27.198Z,11.60
2019-03-27T11:52:29.725Z,13.00
2019-03-27T11:53:27.171Z,14.10
2019-03-27T11:54:27.157Z,15.80
2019-03-27T11:55:27.157Z,12.00
2019-03-27T11:56:27.146Z,11.50
2019-03-27T11:57:27.153Z,13.00
2019-03-27T11:58:27.154Z,10.40
2019-03-27T11:59:27.347Z,11.00
2019-03-27T12:00:27.331Z,13.20
2019-03-27T12:01:39.216Z,11.80
2019-03-27T12:02:27.325Z,10.50
2019-03-27T12:03:27.126Z,12.30
2019-03-27T12:04:27.110Z,12.40
2019-03-27T12:05:27.306Z,12.50
2019-03-27T12:06:27.105Z,12.40
2019-03-27T12:07:27.108Z,13.80
2019-03-27T12:08:27.108Z,10.90
2019-03-27T12:09:27.085Z,12.00
2019-03-27T12:10:27.086Z,10.40
2019-03-27T12:11:27.094Z,11.30
2019-03-27T12:12:27.096Z,9.60
2019-03-27T12:13:27.069Z,10.80
2019-03-27T12:14:27.062Z,12.60
2019-03-27T12:15:27.059Z,9.20
2019-03-27T12:16:27.072Z,12.20
2019-03-27T12:17:27.056Z,9.10
2019-03-27T12:18:27.040Z,8.60
2019-03-27T12:19:27.253Z,11.00
2019-03-27T12:20:27.045Z,11.60
2019-03-27T12:21:27.046Z,9.70
2019-03-27T12:22:27.019Z,11.40
2019-03-27T12:23:27.027Z,10.70
2019-03-27T12:24:28.720Z,10.40
2019-03-27T12:25:27.014Z,14.80
2019-03-27T12:26:27.007Z,11.20
2019-03-27T12:27:26.996Z,10.80
2019-03-27T12:28:27.005Z,9.80
2019-03-27T12:29:26.991Z,9.40
2019-03-27T12:30:26.986Z,10.70
2019-03-27T12:31:26.982Z,8.70
2019-03-27T12:32:26.969Z,9.30
2019-03-27T12:33:26.978Z,9.00
2019-03-27T12:34:26.970Z,9.40
2019-03-27T12:35:26.966Z,10.80
2019-03-27T12:36:26.958Z,10.60
2019-03-27T12:37:26.959Z,10.10
2019-03-27T12:38:26.962Z,10.70
2019-03-27T12:39:26.941Z,11.90
2019-03-27T12:40:26.941Z,11.30
2019-03-27T12:41:26.933Z,9.20
2019-03-27T12:42:26.926Z,11.50
2019-03-27T12:43:26.955Z,11.10
2019-03-27T12:44:26.924Z,11.40
2019-03-27T12:45:26.928Z,11.30
2019-03-27T12:46:26.917Z,10.80
2019-03-27T12:47:26.908Z,12.40
2019-03-27T12:48:26.895Z,14.80
2019-03-27T12:49:26.906Z,12.90
2019-03-27T12:50:26.905Z,17.00
2019-03-27T12:51:26.890Z,15.50
2019-03-27T12:52:27.101Z,15.60
2019-03-27T12:53:27.088Z,17.70